Time;durP1;ratioP1;P1;durP2;ratioP2;P2;SDS_P1;SDS_P2;PMS_P1;PMS_P2;Temp;Humidity;BMP_temperature;BMP_pressure;BME280_temperature;BME280_humidity;BME280_pressure;Samples;Min_cycle;Max_cycle;Signal;HPM_P1;HPM_P2
2023/01/06 00:01:49;;;;;;;;;;;11.30;99.90;;;;;;5050882;28;20011;-69
2023/01/06 00:04:14;;;;;;;;;;;11.50;99.90;;;;;;5051069;28;20433;-69
2023/01/06 00:06:40;;;;;;;;;;;11.30;99.90;;;;;;5033848;28;19920;-69
2023/01/06 00:09:05;;;;;;;;;;;11.30;99.90;;;;;;5042899;28;19929;-69
2023/01/06 00:11:31;;;;;;;;;;;11.70;99.90;;;;;;5051487;28;19925;-69
2023/01/06 00:13:58;;;;;;;;;;;12.40;99.90;;;;;;5047204;28;20021;-69
2023/01/06 00:16:23;;;;;;;;;;;11.70;99.90;;;;;;5033905;28;20407;-69
2023/01/06 00:18:52;;;;;;;;;;;11.70;99.90;;;;;;5026927;28;19956;-69
2023/01/06 00:21:18;;;;;;;;;;;11.60;99.90;;;;;;5051528;28;19927;-69
2023/01/06 00:23:43;;;;;;;;;;;11.40;99.90;;;;;;5049864;28;20015;-69
2023/01/06 00:26:09;;;;;;;;;;;12.60;99.90;;;;;;5050163;28;20310;-69
2023/01/06 00:28:34;;;;;;;;;;;11.50;99.90;;;;;;5048262;28;19921;-69
2023/01/06 00:31:07;;;;;;;;;;;11.70;99.90;;;;;;5051337;28;19921;-69
2023/01/06 00:33:33;;;;;;;;;;;11.70;99.90;;;;;;5033932;28;20011;-69
2023/01/06 00:35:59;;;;;;;;;;;11.60;99.90;;;;;;5050286;28;20445;-69
2023/01/06 00:38:24;;;;;;;;;;;11.40;99.90;;;;;;5050235;28;20290;-69
2023/01/06 00:40:50;;;;;;;;;;;11.80;99.90;;;;;;5050572;28;20390;-69
2023/01/06 00:43:15;;;;;;;;;;;11.40;99.90;;;;;;5052954;28;20271;-69
2023/01/06 00:45:41;;;;;;;;;;;11.60;99.90;;;;;;5055462;28;19921;-69
2023/01/06 00:48:06;;;;;;;;;;;11.80;99.90;;;;;;5055687;28;20428;-69
2023/01/06 00:50:32;;;;;;;;;;;11.60;99.90;;;;;;5054508;28;19928;-69
2023/01/06 00:52:57;;;;;;;;;;;11.50;99.90;;;;;;5055713;28;19920;-69
2023/01/06 00:55:23;;;;;;;;;;;11.50;99.90;;;;;;5053988;28;19974;-69
2023/01/06 00:57:51;;;;;;;;;;;11.50;99.90;;;;;;5054461;28;19932;-69
2023/01/06 01:00:16;;;;;;;;;;;11.30;99.90;;;;;;5054036;28;19925;-69
2023/01/06 01:02:42;;;;;;;;;;;11.40;99.90;;;;;;5054024;28;19927;-69
2023/01/06 01:05:07;;;;;;;;;;;12.20;99.90;;;;;;5053857;28;19932;-69
2023/01/06 01:07:33;;;;;;;;;;;11.50;99.90;;;;;;5053865;28;19928;-69
2023/01/06 01:09:59;;;;;;;;;;;11.50;99.90;;;;;;5055274;28;20011;-69
2023/01/06 01:12:24;;;;;;;;;;;11.70;99.90;;;;;;5051738;28;19920;-69
2023/01/06 01:14:51;;;;;;;;;;;11.80;99.90;;;;;;5037040;28;19928;-69
2023/01/06 01:17:18;;;;;;;;;;;11.60;99.90;;;;;;5053252;28;19921;-69
2023/01/06 01:19:43;;;;;;;;;;;11.60;99.90;;;;;;5053353;28;19925;-70
2023/01/06 01:22:09;;;;;;;;;;;11.50;99.90;;;;;;5053477;28;20382;-69
2023/01/06 01:24:35;;;;;;;;;;;11.20;99.90;;;;;;5055092;28;19928;-69
2023/01/06 01:27:00;;;;;;;;;;;11.70;99.90;;;;;;5054294;28;19966;-69
2023/01/06 01:29:26;;;;;;;;;;;;;;;;;;5053413;28;19927;-69
2023/01/06 01:31:52;;;;;;;;;;;11.50;99.90;;;;;;5053517;28;19920;-69
2023/01/06 01:34:18;;;;;;;;;;;11.50;99.90;;;;;;5053816;28;19921;-69
2023/01/06 01:36:45;;;;;;;;;;;11.40;99.90;;;;;;5053296;28;19920;-71
2023/01/06 01:39:11;;;;;;;;;;;11.40;99.90;;;;;;5054603;28;20012;-71
2023/01/06 01:41:37;;;;;;;;;;;11.20;99.90;;;;;;5053203;28;19921;-71
2023/01/06 01:44:22;;;;;;;;;;;11.40;99.90;;;;;;5053105;28;19920;-71
2023/01/06 01:46:48;;;;;;;;;;;11.00;99.90;;;;;;5016605;28;19921;-71
2023/01/06 01:49:19;;;;;;;;;;;11.40;99.90;;;;;;5050104;28;20011;-71
2023/01/06 01:51:46;;;;;;;;;;;11.20;99.90;;;;;;5033405;28;20023;-71
2023/01/06 01:54:13;;;;;;;;;;;11.90;99.90;;;;;;5015973;28;19921;-71
2023/01/06 01:56:41;;;;;;;;;;;11.80;99.90;;;;;;5049344;28;19929;-72
2023/01/06 01:59:21;;;;;;;;;;;11.70;99.90;;;;;;5034256;28;19987;-71
2023/01/06 02:01:47;;;;;;;;;;;11.10;99.90;;;;;;5045486;28;19921;-71
2023/01/06 02:04:13;;;;;;;;;;;11.30;99.90;;;;;;5054042;28;19928;-70
2023/01/06 02:06:39;;;;;;;;;;;11.30;99.90;;;;;;5052498;28;19960;-69
2023/01/06 02:09:04;;;;;;;;;;;11.50;99.90;;;;;;5052880;28;19963;-69
2023/01/06 02:11:31;;;;;;;;;;;11.30;99.90;;;;;;5053862;28;19928;-69
2023/01/06 02:14:06;;;;;;;;;;;11.50;99.90;;;;;;5036256;28;19943;-69
2023/01/06 02:16:52;;;;;;;;;;;11.30;99.90;;;;;;5054071;28;20020;-69
2023/01/06 02:19:32;;;;;;;;;;;11.30;99.90;;;;;;5053897;28;19931;-69
2023/01/06 02:22:04;;;;;;;;;;;11.20;99.90;;;;;;5053840;28;19994;-69
2023/01/06 02:24:39;;;;;;;;;;;11.30;99.90;;;;;;5052423;28;19943;-69
2023/01/06 02:27:15;;;;;;;;;;;11.20;99.90;;;;;;5053230;28;19925;-69
2023/01/06 02:29:41;;;;;;;;;;;11.30;99.90;;;;;;5053685;28;20004;-69
2023/01/06 02:32:18;;;;;;;;;;;11.60;99.90;;;;;;5052342;28;20410;-69
2023/01/06 02:34:53;;;;;;;;;;;11.30;99.90;;;;;;5053537;28;19929;-70
2023/01/06 02:37:28;;;;;;;;;;;11.20;99.90;;;;;;5051913;28;20299;-70
2023/01/06 02:40:03;;;;;;;;;;;11.30;99.90;;;;;;5053316;28;19944;-69
2023/01/06 02:42:47;;;;;;;;;;;11.30;99.90;;;;;;5049215;28;20390;-69
2023/01/06 02:45:18;;;;;;;;;;;11.10;99.90;;;;;;5032291;28;20337;-69
2023/01/06 02:47:44;;;;;;;;;;;11.30;99.90;;;;;;5051963;28;20020;-70
2023/01/06 02:50:18;;;;;;;;;;;11.40;99.90;;;;;;5052029;28;20372;-69
2023/01/06 02:52:53;;;;;;;;;;;11.30;99.90;;;;;;5033955;28;20003;-69
2023/01/06 02:55:39;;;;;;;;;;;11.30;99.90;;;;;;5036250;28;19928;-69
2023/01/06 02:58:11;;;;;;;;;;;11.20;99.90;;;;;;5053068;28;20456;-69
2023/01/06 03:00:41;;;;;;;;;;;11.10;99.90;;;;;;5034468;28;20422;-70
2023/01/06 03:03:10;;;;;;;;;;;11.80;99.90;;;;;;5051107;28;20406;-69
2023/01/06 03:05:35;;;;;;;;;;;11.60;99.90;;;;;;5033685;28;19927;-70
2023/01/06 03:08:03;;;;;;;;;;;11.80;99.90;;;;;;5051331;28;19921;-69
2023/01/06 03:10:29;;;;;;;;;;;11.50;99.90;;;;;;5034835;28;20351;-69
2023/01/06 03:13:07;;;;;;;;;;;11.20;99.90;;;;;;5051612;28;20004;-70
2023/01/06 03:15:33;;;;;;;;;;;11.20;99.90;;;;;;5051195;28;19975;-69
2023/01/06 03:17:59;;;;;;;;;;;12.20;99.90;;;;;;5051105;28;20348;-70
2023/01/06 03:20:24;;;;;;;;;;;11.20;99.90;;;;;;5052289;28;20402;-70
2023/01/06 03:22:50;;;;;;;;;;;11.10;99.90;;;;;;5052486;28;20579;-70
2023/01/06 03:25:15;;;;;;;;;;;11.10;99.90;;;;;;5051068;28;19927;-69
2023/01/06 03:27:41;;;;;;;;;;;11.40;99.90;;;;;;5051184;28;19928;-70
2023/01/06 03:30:08;;;;;;;;;;;11.30;99.90;;;;;;5051212;28;19963;-70
2023/01/06 03:32:46;;;;;;;;;;;11.40;99.90;;;;;;5034780;28;19944;-69
2023/01/06 03:35:30;;;;;;;;;;;11.40;99.90;;;;;;5051246;28;19921;-69
2023/01/06 03:38:14;;;;;;;;;;;11.20;99.90;;;;;;5052292;28;19924;-69
2023/01/06 03:40:43;;;;;;;;;;;11.20;99.90;;;;;;5049545;28;19947;-69
2023/01/06 03:43:24;;;;;;;;;;;11.60;99.90;;;;;;5050819;28;20004;-69
2023/01/06 03:45:59;;;;;;;;;;;11.40;99.90;;;;;;5050864;28;19920;-70
2023/01/06 03:48:43;;;;;;;;;;;11.30;99.90;;;;;;5051096;28;20328;-70
2023/01/06 03:51:12;;;;;;;;;;;11.50;99.90;;;;;;5051390;28;19987;-70
2023/01/06 03:53:40;;;;;;;;;;;11.30;99.90;;;;;;5034025;28;19975;-69
2023/01/06 03:56:18;;;;;;;;;;;11.50;99.90;;;;;;5052101;28;19968;-69
2023/01/06 03:58:45;;;;;;;;;;;11.40;99.90;;;;;;5034266;28;19947;-69
2023/01/06 04:01:11;;;;;;;;;;;11.30;99.90;;;;;;5044201;28;20299;-69
2023/01/06 04:03:37;;;;;;;;;;;;;;;;;;5051124;28;19971;-69
2023/01/06 04:06:02;;;;;;;;;;;11.30;99.90;;;;;;5050519;28;20325;-69
2023/01/06 04:08:28;;;;;;;;;;;11.40;99.90;;;;;;5051101;28;19920;-69
2023/01/06 04:10:54;;;;;;;;;;;11.40;99.90;;;;;;5052140;28;19921;-69
2023/01/06 04:13:19;;;;;;;;;;;11.80;99.90;;;;;;5051417;28;19920;-69
2023/01/06 04:15:45;;;;;;;;;;;11.30;99.90;;;;;;5047777;28;19920;-70
2023/01/06 04:18:10;;;;;;;;;;;11.20;99.90;;;;;;5045588;28;19921;-70
2023/01/06 04:20:36;;;;;;;;;;;11.30;99.90;;;;;;5054293;28;20409;-70
2023/01/06 04:23:01;;;;;;;;;;;11.30;99.90;;;;;;5056304;28;20015;-69
2023/01/06 04:25:27;;;;;;;;;;;11.20;99.90;;;;;;5054438;28;19971;-69
2023/01/06 04:27:53;;;;;;;;;;;11.40;99.90;;;;;;5054441;28;19920;-69
2023/01/06 04:30:18;;;;;;;;;;;11.40;99.90;;;;;;5052888;28;20410;-70
2023/01/06 04:32:44;;;;;;;;;;;11.30;99.90;;;;;;5055806;28;19921;-69
2023/01/06 04:35:10;;;;;;;;;;;11.60;99.90;;;;;;5055449;28;19966;-69
2023/01/06 04:37:36;;;;;;;;;;;11.30;99.90;;;;;;5054523;28;19968;-69
2023/01/06 04:40:02;;;;;;;;;;;11.50;99.90;;;;;;5054663;28;19979;-69
2023/01/06 04:42:28;;;;;;;;;;;12.00;99.90;;;;;;5055911;28;19920;-69
2023/01/06 04:44:53;;;;;;;;;;;12.00;99.90;;;;;;5034338;28;20349;-70
2023/01/06 04:47:18;;;;;;;;;;;11.30;99.90;;;;;;5035555;28;19925;-69
2023/01/06 04:49:44;;;;;;;;;;;11.50;99.90;;;;;;5034270;28;19972;-69
2023/01/06 04:52:09;;;;;;;;;;;11.40;99.90;;;;;;5018096;28;20360;-69
2023/01/06 04:54:35;;;;;;;;;;;11.40;99.90;;;;;;5047466;28;19920;-69
2023/01/06 04:57:01;;;;;;;;;;;11.50;99.90;;;;;;5054167;28;19968;-70
2023/01/06 04:59:27;;;;;;;;;;;;;;;;;;5051830;28;20007;-69
2023/01/06 05:01:52;;;;;;;;;;;11.40;99.90;;;;;;5055056;28;20386;-69
2023/01/06 05:04:18;;;;;;;;;;;11.30;99.90;;;;;;5052357;28;20058;-70
2023/01/06 05:06:44;;;;;;;;;;;11.30;99.90;;;;;;5053596;28;19943;-69
2023/01/06 05:09:09;;;;;;;;;;;11.50;99.90;;;;;;5052293;28;20039;-69
2023/01/06 05:11:35;;;;;;;;;;;11.50;99.90;;;;;;5054920;28;19974;-69
2023/01/06 05:14:00;;;;;;;;;;;11.30;99.90;;;;;;5053872;28;19929;-70
2023/01/06 05:16:30;;;;;;;;;;;12.20;99.90;;;;;;5053500;28;19928;-69
2023/01/06 05:18:56;;;;;;;;;;;12.10;99.90;;;;;;5053352;28;20341;-69
2023/01/06 05:21:26;;;;;;;;;;;11.40;99.90;;;;;;5054757;28;19928;-69
2023/01/06 05:23:51;;;;;;;;;;;11.50;99.90;;;;;;5053681;28;19921;-69
2023/01/06 05:26:19;;;;;;;;;;;11.30;99.90;;;;;;5053562;28;20007;-69
2023/01/06 05:28:44;;;;;;;;;;;12.10;99.90;;;;;;5049985;28;20034;-69
2023/01/06 05:31:10;;;;;;;;;;;11.30;99.90;;;;;;5046459;28;20003;-69
2023/01/06 05:33:36;;;;;;;;;;;11.40;99.90;;;;;;5036721;28;20378;-69
2023/01/06 05:36:09;;;;;;;;;;;11.60;99.90;;;;;;5052948;28;19920;-69
2023/01/06 05:38:34;;;;;;;;;;;11.40;99.90;;;;;;5053513;28;19928;-69
2023/01/06 05:41:00;;;;;;;;;;;11.40;99.90;;;;;;5054630;28;19925;-69
2023/01/06 05:43:26;;;;;;;;;;;11.10;99.90;;;;;;5036539;28;19921;-69
2023/01/06 05:45:52;;;;;;;;;;;11.10;99.90;;;;;;5054174;28;20015;-69
2023/01/06 05:48:18;;;;;;;;;;;11.40;99.90;;;;;;5054502;28;20312;-69
2023/01/06 05:50:43;;;;;;;;;;;11.00;99.90;;;;;;5053198;28;20024;-69
2023/01/06 05:53:09;;;;;;;;;;;11.20;99.90;;;;;;5053078;28;19928;-70
2023/01/06 05:55:34;;;;;;;;;;;11.60;99.90;;;;;;5052960;28;19921;-70
2023/01/06 05:57:59;;;;;;;;;;;11.00;99.90;;;;;;5053378;28;19928;-69
2023/01/06 06:00:25;;;;;;;;;;;11.20;99.90;;;;;;5051408;28;20398;-69
2023/01/06 06:02:50;;;;;;;;;;;11.20;99.90;;;;;;5052879;28;19932;-69
2023/01/06 06:05:16;;;;;;;;;;;11.60;99.90;;;;;;5053894;28;19920;-69
2023/01/06 06:07:41;;;;;;;;;;;11.20;99.90;;;;;;5052901;28;19928;-69
2023/01/06 06:10:10;;;;;;;;;;;11.00;99.90;;;;;;5053086;28;20394;-69
2023/01/06 06:12:35;;;;;;;;;;;10.80;99.90;;;;;;5035929;28;19921;-70
2023/01/06 06:15:01;;;;;;;;;;;11.70;99.90;;;;;;5048877;28;19939;-70
2023/01/06 06:17:27;;;;;;;;;;;11.10;99.90;;;;;;5050716;28;19921;-70
2023/01/06 06:19:52;;;;;;;;;;;11.10;99.90;;;;;;5050746;28;19940;-69
2023/01/06 06:22:18;;;;;;;;;;;11.60;99.90;;;;;;5052289;28;19925;-69
2023/01/06 06:24:44;;;;;;;;;;;11.50;99.90;;;;;;5052023;28;19959;-69
2023/01/06 06:27:09;;;;;;;;;;;11.10;99.90;;;;;;5051874;28;19964;-70
2023/01/06 06:29:35;;;;;;;;;;;11.20;99.90;;;;;;5050696;28;20539;-69
2023/01/06 06:32:00;;;;;;;;;;;11.00;99.90;;;;;;5053243;28;19920;-69
2023/01/06 06:34:26;;;;;;;;;;;11.10;99.90;;;;;;5053518;28;20050;-70
2023/01/06 06:36:51;;;;;;;;;;;11.20;99.90;;;;;;5052073;28;20007;-69
2023/01/06 06:39:17;;;;;;;;;;;11.20;99.90;;;;;;5051918;28;19925;-71
2023/01/06 06:41:43;;;;;;;;;;;;;;;;;;5051357;28;19921;-69
2023/01/06 06:44:08;;;;;;;;;;;10.90;99.90;;;;;;5051620;28;20364;-69
2023/01/06 06:46:34;;;;;;;;;;;11.20;99.90;;;;;;5051598;28;19931;-69
2023/01/06 06:48:59;;;;;;;;;;;11.40;99.90;;;;;;5053269;28;19964;-69
2023/01/06 06:51:25;;;;;;;;;;;;;;;;;;5051337;28;20011;-69
2023/01/06 06:53:51;;;;;;;;;;;11.30;99.90;;;;;;5051778;28;20368;-69
2023/01/06 06:56:18;;;;;;;;;;;11.10;99.90;;;;;;5051767;28;19921;-69
2023/01/06 06:58:43;;;;;;;;;;;11.20;99.90;;;;;;5051634;28;19927;-70
2023/01/06 07:01:10;;;;;;;;;;;11.00;99.90;;;;;;5049842;28;20398;-69
2023/01/06 07:03:36;;;;;;;;;;;12.10;99.90;;;;;;5051847;28;19920;-69
2023/01/06 07:06:02;;;;;;;;;;;11.20;99.90;;;;;;5050770;28;19921;-69
2023/01/06 07:08:28;;;;;;;;;;;11.10;99.90;;;;;;5052629;28;19979;-69
2023/01/06 07:10:54;;;;;;;;;;;11.10;99.90;;;;;;5052582;28;20386;-69
2023/01/06 07:13:19;;;;;;;;;;;11.30;99.90;;;;;;5045682;28;19924;-69
2023/01/06 07:15:45;;;;;;;;;;;11.10;99.90;;;;;;5045148;28;19921;-69
2023/01/06 07:18:11;;;;;;;;;;;11.10;99.90;;;;;;5053841;28;19927;-69
2023/01/06 07:20:37;;;;;;;;;;;11.00;99.90;;;;;;5049124;28;19939;-69
2023/01/06 07:23:02;;;;;;;;;;;11.10;99.90;;;;;;5058295;28;19947;-69
2023/01/06 07:25:28;;;;;;;;;;;11.10;99.90;;;;;;5061218;28;19931;-69
2023/01/06 07:27:55;;;;;;;;;;;11.20;99.90;;;;;;5058543;28;19931;-69
2023/01/06 07:30:20;;;;;;;;;;;10.80;99.90;;;;;;5059279;28;19969;-69
2023/01/06 07:32:46;;;;;;;;;;;10.90;99.90;;;;;;5053152;28;19928;-68
2023/01/06 07:35:11;;;;;;;;;;;11.30;99.90;;;;;;5050309;28;19924;-68
2023/01/06 07:37:37;;;;;;;;;;;10.70;99.90;;;;;;5051745;28;20494;-68
2023/01/06 07:40:03;;;;;;;;;;;10.60;99.90;;;;;;5053127;28;20009;-69
2023/01/06 07:42:28;;;;;;;;;;;10.40;99.90;;;;;;5061249;28;19937;-69
2023/01/06 07:44:53;;;;;;;;;;;10.30;99.90;;;;;;5058056;28;19970;-69
2023/01/06 07:47:19;;;;;;;;;;;10.40;99.90;;;;;;5059159;28;19927;-69
2023/01/06 07:49:44;;;;;;;;;;;10.00;99.90;;;;;;5055542;28;19921;-69
2023/01/06 07:52:10;;;;;;;;;;;10.30;99.90;;;;;;5058741;28;19920;-69
2023/01/06 07:54:38;;;;;;;;;;;10.20;99.90;;;;;;5047735;28;19947;-69
2023/01/06 07:57:03;;;;;;;;;;;9.90;99.90;;;;;;5030163;28;19925;-68
2023/01/06 07:59:29;;;;;;;;;;;;;;;;;;5032211;28;20512;-69
2023/01/06 08:01:55;;;;;;;;;;;9.90;99.90;;;;;;5036391;28;19947;-71
2023/01/06 08:04:20;;;;;;;;;;;9.90;99.90;;;;;;5034825;28;20394;-69
2023/01/06 08:06:46;;;;;;;;;;;9.80;99.90;;;;;;5036180;28;20287;-69
2023/01/06 08:09:11;;;;;;;;;;;9.40;99.90;;;;;;5044462;28;20015;-68
2023/01/06 08:11:37;;;;;;;;;;;9.50;99.90;;;;;;5051561;28;19968;-69
2023/01/06 08:14:02;;;;;;;;;;;10.10;99.90;;;;;;5040529;28;19924;-71
2023/01/06 08:16:28;;;;;;;;;;;;;;;;;;5060046;28;19929;-71
2023/01/06 08:18:54;;;;;;;;;;;9.50;99.90;;;;;;5056190;28;20366;-72
2023/01/06 08:21:19;;;;;;;;;;;9.50;99.90;;;;;;5054773;28;19931;-71
2023/01/06 08:23:45;;;;;;;;;;;9.40;99.90;;;;;;5038761;28;20019;-71
2023/01/06 08:26:13;;;;;;;;;;;9.40;99.90;;;;;;5053691;28;20017;-71
2023/01/06 08:28:39;;;;;;;;;;;;;;;;;;5058939;28;19978;-71
2023/01/06 08:31:07;;;;;;;;;;;9.30;99.90;;;;;;5064870;28;19921;-72
2023/01/06 08:33:33;;;;;;;;;;;9.10;99.90;;;;;;5043383;28;19920;-71
2023/01/06 08:35:59;;;;;;;;;;;9.20;99.90;;;;;;5040513;28;20583;-71
2023/01/06 08:38:25;;;;;;;;;;;9.20;99.90;;;;;;5050021;28;19932;-72
2023/01/06 08:40:51;;;;;;;;;;;9.20;99.90;;;;;;5033964;28;20027;-72
2023/01/06 08:43:17;;;;;;;;;;;9.30;99.90;;;;;;5050612;28;19982;-73
2023/01/06 08:45:43;;;;;;;;;;;9.50;99.90;;;;;;5050311;28;20345;-73
2023/01/06 08:48:08;;;;;;;;;;;9.40;99.90;;;;;;5050497;28;19925;-73
2023/01/06 08:50:34;;;;;;;;;;;9.50;99.90;;;;;;5033852;28;19921;-73
2023/01/06 08:52:59;;;;;;;;;;;9.30;99.90;;;;;;5050476;28;19973;-73
2023/01/06 08:55:25;;;;;;;;;;;9.50;99.90;;;;;;5050024;28;19921;-74
2023/01/06 08:57:50;;;;;;;;;;;9.10;99.90;;;;;;5033591;28;19921;-74
2023/01/06 09:00:16;;;;;;;;;;;9.40;99.90;;;;;;5049986;28;19931;-74
2023/01/06 09:02:41;;;;;;;;;;;9.30;99.90;;;;;;5051472;28;19921;-74
2023/01/06 09:05:07;;;;;;;;;;;9.30;99.90;;;;;;5052694;28;19921;-74
2023/01/06 09:07:32;;;;;;;;;;;9.60;99.90;;;;;;5054554;28;20309;-74
2023/01/06 09:09:58;;;;;;;;;;;9.40;99.90;;;;;;5053752;28;20313;-72
2023/01/06 09:12:24;;;;;;;;;;;9.70;99.90;;;;;;5054295;28;19924;-72
2023/01/06 09:14:49;;;;;;;;;;;9.50;99.90;;;;;;5030696;28;19928;-72
2023/01/06 09:17:15;;;;;;;;;;;9.30;99.90;;;;;;5053672;28;19921;-73
2023/01/06 09:19:40;;;;;;;;;;;9.70;99.90;;;;;;5052696;28;19933;-72
2023/01/06 09:22:06;;;;;;;;;;;9.60;99.90;;;;;;5053203;28;19921;-72
2023/01/06 09:24:32;;;;;;;;;;;10.00;99.90;;;;;;5054535;28;19943;-72
2023/01/06 09:26:57;;;;;;;;;;;9.70;99.90;;;;;;5054394;28;20323;-72
2023/01/06 09:29:23;;;;;;;;;;;9.90;99.90;;;;;;5049494;28;19928;-72
2023/01/06 09:31:48;;;;;;;;;;;9.50;99.90;;;;;;5045293;28;19968;-72
2023/01/06 09:34:14;;;;;;;;;;;9.80;99.90;;;;;;5054851;28;19928;-72
2023/01/06 09:36:40;;;;;;;;;;;;;;;;;;5044307;28;20011;-72
2023/01/06 09:39:05;;;;;;;;;;;10.00;99.90;;;;;;5053606;28;20011;-72
2023/01/06 09:41:41;;;;;;;;;;;9.80;99.90;;;;;;5036650;28;19921;-72
2023/01/06 09:44:10;;;;;;;;;;;10.00;99.90;;;;;;5053508;28;19921;-72
2023/01/06 09:46:37;;;;;;;;;;;10.00;99.90;;;;;;5054316;28;20420;-72
2023/01/06 09:49:23;;;;;;;;;;;10.20;99.90;;;;;;5054212;28;19921;-72
2023/01/06 09:51:49;;;;;;;;;;;;;;;;;;5052795;28;19979;-72
2023/01/06 09:54:18;;;;;;;;;;;9.90;99.90;;;;;;5052864;28;20354;-72
2023/01/06 09:56:46;;;;;;;;;;;10.00;99.90;;;;;;5053207;28;20298;-72
2023/01/06 09:59:16;;;;;;;;;;;10.20;99.90;;;;;;5054176;28;20011;-72
2023/01/06 10:01:44;;;;;;;;;;;10.00;99.90;;;;;;5039316;28;19921;-72
2023/01/06 10:04:20;;;;;;;;;;;10.10;99.90;;;;;;5034021;28;19921;-72
2023/01/06 10:06:50;;;;;;;;;;;10.20;99.90;;;;;;5045589;28;20353;-72
2023/01/06 10:09:36;;;;;;;;;;;10.00;99.90;;;;;;5043090;28;19944;-72
2023/01/06 10:12:21;;;;;;;;;;;10.10;99.90;;;;;;5053991;28;19966;-72
2023/01/06 10:14:47;;;;;;;;;;;10.30;99.90;;;;;;5052585;28;20286;-72
2023/01/06 10:17:31;;;;;;;;;;;10.50;99.90;;;;;;5052567;28;19920;-72
2023/01/06 10:20:12;;;;;;;;;;;10.30;99.90;;;;;;5053652;28;19925;-72
2023/01/06 10:22:43;;;;;;;;;;;10.30;99.90;;;;;;5053728;28;19967;-72
2023/01/06 10:25:26;;;;;;;;;;;10.30;99.90;;;;;;5035609;28;19928;-72
2023/01/06 10:28:00;;;;;;;;;;;10.30;99.90;;;;;;5053829;28;19920;-72
2023/01/06 10:30:27;;;;;;;;;;;10.30;99.90;;;;;;5053881;28;19967;-72
2023/01/06 10:32:53;;;;;;;;;;;10.80;99.90;;;;;;5035655;28;19964;-72
2023/01/06 10:35:20;;;;;;;;;;;10.10;99.90;;;;;;5052291;28;20353;-72
2023/01/06 10:37:46;;;;;;;;;;;10.30;99.90;;;;;;5051992;28;19921;-72
2023/01/06 10:40:16;;;;;;;;;;;10.20;99.90;;;;;;5053060;28;19925;-72
2023/01/06 10:42:54;;;;;;;;;;;10.30;99.90;;;;;;5052273;28;20103;-72
2023/01/06 10:45:25;;;;;;;;;;;10.30;99.90;;;;;;5051781;28;19924;-72
2023/01/06 10:47:51;;;;;;;;;;;10.30;99.90;;;;;;5053342;28;19952;-72
2023/01/06 10:50:17;;;;;;;;;;;10.20;99.90;;;;;;5051771;28;19921;-72
2023/01/06 10:52:44;;;;;;;;;;;10.40;99.90;;;;;;5051901;28;20374;-72
2023/01/06 10:55:27;;;;;;;;;;;10.60;99.90;;;;;;5051749;28;19921;-72
2023/01/06 10:57:53;;;;;;;;;;;10.40;99.90;;;;;;5051844;28;19921;-73
2023/01/06 11:00:23;;;;;;;;;;;10.60;99.90;;;;;;5049012;28;19929;-72
2023/01/06 11:02:50;;;;;;;;;;;10.40;99.90;;;;;;5015209;28;19925;-72
2023/01/06 11:05:17;;;;;;;;;;;10.80;99.90;;;;;;5034327;28;20035;-72
2023/01/06 11:07:48;;;;;;;;;;;10.70;99.90;;;;;;5048770;28;19925;-72
2023/01/06 11:10:21;;;;;;;;;;;10.50;99.90;;;;;;5023172;28;20011;-72
2023/01/06 11:12:46;;;;;;;;;;;10.70;99.90;;;;;;5048796;28;19928;-72
2023/01/06 11:15:17;;;;;;;;;;;10.60;99.90;;;;;;5048900;28;20305;-72
2023/01/06 11:17:44;;;;;;;;;;;10.50;99.90;;;;;;5052765;28;19920;-73
2023/01/06 11:20:13;;;;;;;;;;;10.70;99.90;;;;;;5051029;28;20301;-72
2023/01/06 11:22:39;;;;;;;;;;;10.70;99.90;;;;;;5053125;28;19924;-72
2023/01/06 11:25:22;;;;;;;;;;;10.70;99.90;;;;;;5058724;28;19925;-72
2023/01/06 11:28:07;;;;;;;;;;;10.70;99.90;;;;;;5062138;28;20011;-72
2023/01/06 11:30:36;;;;;;;;;;;10.80;99.90;;;;;;5041270;28;20003;-72
2023/01/06 11:33:02;;;;;;;;;;;10.80;99.90;;;;;;5038360;28;19931;-72
2023/01/06 11:35:30;;;;;;;;;;;10.80;99.90;;;;;;5033623;28;20000;-72
2023/01/06 11:37:56;;;;;;;;;;;10.80;99.90;;;;;;5038157;28;20036;-72
2023/01/06 11:40:28;;;;;;;;;;;10.90;99.90;;;;;;5033689;28;19983;-71
2023/01/06 11:42:56;;;;;;;;;;;11.10;99.90;;;;;;5052325;28;19928;-72
2023/01/06 11:45:22;;;;;;;;;;;;;;;;;;5050668;28;19929;-72
2023/01/06 11:47:48;;;;;;;;;;;10.90;99.90;;;;;;5032992;28;19928;-72
2023/01/06 11:50:17;;;;;;;;;;;10.90;99.90;;;;;;5054225;28;20298;-71
2023/01/06 11:52:56;;;;;;;;;;;10.80;99.90;;;;;;5061065;28;19928;-71
2023/01/06 11:55:22;;;;;;;;;;;11.00;99.90;;;;;;5070715;28;19920;-72
2023/01/06 11:57:53;;;;;;;;;;;11.60;99.90;;;;;;5069213;28;19929;-72
2023/01/06 12:00:32;;;;;;;;;;;10.90;99.90;;;;;;5070360;28;19986;-72
2023/01/06 12:03:10;;;;;;;;;;;10.60;99.90;;;;;;5054980;28;19932;-72
2023/01/06 12:05:45;;;;;;;;;;;10.70;99.90;;;;;;5046787;28;19932;-72
2023/01/06 12:08:25;;;;;;;;;;;10.80;99.90;;;;;;5032149;28;19956;-70
2023/01/06 12:10:57;;;;;;;;;;;10.60;99.90;;;;;;5051076;28;19944;-71
2023/01/06 12:13:23;;;;;;;;;;;10.80;99.90;;;;;;5050293;28;20371;-71
2023/01/06 12:15:53;;;;;;;;;;;10.80;99.90;;;;;;5049526;28;19968;-71
2023/01/06 12:18:21;;;;;;;;;;;10.60;99.90;;;;;;5050582;28;19927;-71
2023/01/06 12:20:48;;;;;;;;;;;10.90;99.90;;;;;;5049521;28;19970;-71
2023/01/06 12:23:25;;;;;;;;;;;10.90;99.90;;;;;;5033972;28;19964;-71
2023/01/06 12:25:54;;;;;;;;;;;10.70;99.90;;;;;;5050145;28;20286;-71
2023/01/06 12:28:28;;;;;;;;;;;10.80;99.90;;;;;;5050396;28;19975;-71
2023/01/06 12:30:59;;;;;;;;;;;10.70;99.90;;;;;;5050593;28;19930;-71
2023/01/06 12:33:24;;;;;;;;;;;10.60;99.90;;;;;;5051931;28;19971;-71
2023/01/06 12:35:52;;;;;;;;;;;11.20;99.90;;;;;;5050146;28;20302;-71
2023/01/06 12:38:29;;;;;;;;;;;10.80;99.90;;;;;;5051776;28;19970;-71
2023/01/06 12:40:59;;;;;;;;;;;10.60;99.90;;;;;;5068108;28;20326;-71
2023/01/06 12:43:27;;;;;;;;;;;10.60;99.90;;;;;;5055446;28;19966;-71
2023/01/06 12:46:01;;;;;;;;;;;10.70;99.90;;;;;;5050980;28;20015;-71
2023/01/06 12:48:34;;;;;;;;;;;10.60;99.90;;;;;;5053700;28;20055;-71
2023/01/06 12:51:04;;;;;;;;;;;10.70;99.90;;;;;;5053507;28;19928;-71
2023/01/06 12:53:35;;;;;;;;;;;10.70;99.90;;;;;;5037558;28;19920;-71
2023/01/06 12:56:10;;;;;;;;;;;10.60;99.90;;;;;;5054079;28;20008;-71
2023/01/06 12:58:55;;;;;;;;;;;10.60;99.90;;;;;;5055493;28;19971;-71
2023/01/06 13:01:29;;;;;;;;;;;10.60;99.90;;;;;;5026026;28;20032;-71
2023/01/06 13:04:06;;;;;;;;;;;10.40;99.90;;;;;;5034237;28;19921;-71
2023/01/06 13:06:49;;;;;;;;;;;10.30;99.90;;;;;;5033792;28;19928;-71
2023/01/06 13:09:21;;;;;;;;;;;10.50;99.90;;;;;;5032682;28;20374;-71
2023/01/06 13:11:49;;;;;;;;;;;10.50;99.90;;;;;;5054158;28;19928;-71
2023/01/06 13:14:27;;;;;;;;;;;10.40;99.90;;;;;;5054231;28;19927;-71
2023/01/06 13:16:55;;;;;;;;;;;10.40;99.90;;;;;;5053794;28;19928;-71
2023/01/06 13:19:34;;;;;;;;;;;10.50;99.90;;;;;;5055081;28;19921;-71
2023/01/06 13:22:00;;;;;;;;;;;10.40;99.90;;;;;;5054984;28;19939;-71
2023/01/06 13:24:44;;;;;;;;;;;10.70;99.90;;;;;;5055018;28;19928;-71
2023/01/06 13:27:13;;;;;;;;;;;10.50;99.90;;;;;;5036461;28;19927;-71
2023/01/06 13:29:38;;;;;;;;;;;10.60;99.90;;;;;;5053658;28;19924;-71
2023/01/06 13:32:23;;;;;;;;;;;10.30;99.90;;;;;;5053697;28;19921;-71
2023/01/06 13:34:54;;;;;;;;;;;10.60;99.90;;;;;;5053425;28;19973;-71
2023/01/06 13:37:27;;;;;;;;;;;10.50;99.90;;;;;;5054299;28;19925;-71
2023/01/06 13:40:01;;;;;;;;;;;10.50;99.90;;;;;;5036795;28;20019;-71
2023/01/06 13:42:35;;;;;;;;;;;10.50;99.90;;;;;;5052907;28;19950;-71
2023/01/06 13:45:02;;;;;;;;;;;10.40;99.90;;;;;;5036194;28;19921;-71
2023/01/06 13:47:28;;;;;;;;;;;10.30;99.90;;;;;;5053054;28;19920;-71
2023/01/06 13:49:56;;;;;;;;;;;10.30;99.90;;;;;;5044522;28;20177;-71
2023/01/06 13:52:23;;;;;;;;;;;10.40;99.90;;;;;;5047363;28;19967;-71
2023/01/06 13:54:49;;;;;;;;;;;10.60;99.90;;;;;;5050710;28;19925;-71
2023/01/06 13:57:35;;;;;;;;;;;10.50;99.90;;;;;;5053901;28;20008;-71
2023/01/06 14:00:13;;;;;;;;;;;10.30;99.90;;;;;;5015867;28;20012;-71
2023/01/06 14:02:38;;;;;;;;;;;10.40;99.90;;;;;;5042596;28;19925;-71
2023/01/06 14:05:03;;;;;;;;;;;10.70;99.90;;;;;;5052229;28;20344;-71
2023/01/06 14:07:36;;;;;;;;;;;10.50;99.90;;;;;;5052438;28;19928;-71
2023/01/06 14:10:25;;;;;;;;;;;10.40;99.90;;;;;;5053932;28;19928;-71
2023/01/06 14:12:51;;;;;;;;;;;10.40;99.90;;;;;;5047519;28;19925;-71
2023/01/06 14:15:22;;;;;;;;;;;10.80;99.90;;;;;;5032582;28;20294;-71
2023/01/06 14:17:47;;;;;;;;;;;10.50;99.90;;;;;;5049834;28;19924;-71
2023/01/06 14:20:31;;;;;;;;;;;10.30;99.90;;;;;;5081642;22;19932;-72
2023/01/06 14:23:03;;;;;;;;;;;10.40;99.90;;;;;;5056705;28;19924;-72
2023/01/06 14:25:31;;;;;;;;;;;10.30;99.90;;;;;;5049247;28;19928;-72
2023/01/06 14:27:59;;;;;;;;;;;10.40;99.90;;;;;;5073732;28;20011;-73
2023/01/06 14:30:29;;;;;;;;;;;10.20;99.90;;;;;;5073626;28;20401;-73
2023/01/06 14:33:21;;;;;;;;;;;10.10;99.90;;;;;;5052087;28;19929;-72